Station: Stenhouse Bay

  Atmospheric Gas Attenuation - ITU Rec 676-11   --------------- db/100km ---------------
Date Time Temp RH % AH g/m3 Dew Point Wind Direction Speed kph Gust kph Barometer mB Rainfall Since 9am 24GHz 47GHz 76GHz 122GHz 134GHz 241GHz
15 01:20 12.4 83 9.07 9.7 19 20 1018.7 0.2 20.7 27.3 42.7 112.1 107.1 368.5
15 01:10 12.1 82 8.79 9.1 26 28 1018.6 0.2 20.1 26.9 41.7 109.4 103.6 356.5
15 01:00 12.2 82 8.85 9.2 26 33 1018.5 0.2 20.2 27.0 41.9 109.9 104.3 358.9
15 00:50 12.1 82 8.79 9.1 28 30 1018.4 0.2 20.1 26.9 41.7 109.4 103.6 356.4
15 00:40 12 83 8.85 9.3 28 32 1018.4 0.2 20.2 27.0 42.0 110.2 104.6 359.8
15 00:30 11.9 85 9 9.5 20 28 1018.4 0.2 20.5 27.3 42.7 112.0 106.8 367.4
15 00:20 12.1 85 9.12 9.6 26 30 1018.4 0.2 20.8 27.5 43.1 113.1 108.1 372.3
15 00:10 12 85 9.06 9.5 26 28 1018.5 0.2 20.7 27.4 42.9 112.6 107.5 369.9
15 00:00 12 84 8.95 9.4 24 32 1018.6 0.2 20.4 27.2 42.4 111.3 106.0 364.6
14 23:50 12.2 83 8.96 9.4 26 30 1018.6 0.2 20.4 27.2 42.3 111.2 105.8 364.2
14 23:40 12.4 83 9.07 9.7 30 33 1018.5 0.2 20.7 27.3 42.7 112.1 107.0 368.5
14 23:30 12.4 83 9.07 9.6 26 33 1018.5 0.2 20.7 27.3 42.7 112.1 107.0 368.5
14 23:20 12.4 81 8.85 9.2 30 32 1018.3 0.2 20.2 26.9 41.8 109.6 104.0 357.9
14 23:10 12.4 81 8.85 9.2 30 32 1018.4 0.2 20.2 26.9 41.8 109.6 104.0 357.9
14 23:00 12.5 81 8.91 9.3 30 39 1018.5 0.2 20.3 27.0 42.0 110.2 104.7 360.3
14 22:50 12.6 82 9.07 9.6 26 30 1018.5 0.2 20.6 27.2 42.6 111.8 106.8 367.5
14 22:40 12.5 82 9.02 9.5 26 32 1018.3 0.2 20.5 27.2 42.4 111.4 106.2 365.6
14 22:30 12.3 81 8.8 9.1 30 33 1018 0.2 20.1 26.8 41.6 109.2 103.4 355.9
14 22:20 12.4 82 8.96 9.4 33 39 1017.9 0.2 20.4 27.1 42.2 110.8 105.5 363.0
14 22:10 12.5 83 9.13 9.7 28 35 1017.9 0.2 20.8 27.3 42.9 112.5 107.7 370.7
14 22:00 12.4 82 8.96 9.4 35 39 1017.8 0.2 20.4 27.1 42.2 110.8 105.5 363.0
14 21:50 12.3 82 8.9 9.3 35 41 1017.6 0.2 20.3 27.0 42.0 110.2 104.8 360.5
14 21:40 12.4 83 9.07 9.7 35 41 1017.6 0.2 20.7 27.3 42.7 112.0 107.0 368.2
14 21:30 12.5 85 9.35 10 32 37 1017.5 0.2 21.3 27.7 43.8 115.0 110.7 381.2
14 21:20 12.3 83 9.01 9.6 32 39 1017.4 0.2 20.5 27.2 42.4 111.4 106.3 365.7
14 21:10 12.3 86 9.34 10 26 32 1017.4 0.2 21.2 27.7 43.8 115.1 110.8 381.7
14 21:00 12.3 87 9.45 10.2 30 41 1017.3 0.2 21.5 27.9 44.3 116.4 112.3 387.0
14 20:50 12.4 86 9.4 10.1 41 44 1017.1 0.2 21.4 27.8 44.0 115.6 111.5 384.0
14 20:40 12.2 86 9.28 9.9 32 39 1017.1 0.2 21.1 27.7 43.6 114.6 110.1 379.2
14 20:30 12.4 87 9.51 10.3 35 44 1017.1 0.2 21.6 28.0 44.5 116.9 113.0 389.4
14 20:20 12.3 87 9.45 10.2 37 41 1017 0.2 21.5 27.9 44.3 116.3 112.3 386.9
14 20:10 12.4 87 9.51 10.4 30 33 1016.9 0.2 21.6 28.0 44.5 116.9 113.0 389.3
14 20:00 12.5 88 9.68 10.6 35 41 1016.6 0.2 22.0 28.2 45.1 118.6 115.2 397.0
14 19:50 12.5 88 9.68 10.5 33 37 1016.5 0.2 22.0 28.2 45.1 118.6 115.2 397.0
14 19:40 12.6 89 9.85 10.8 41 44 1016.3 0.2 22.3 28.5 45.8 120.3 117.4 404.8
14 19:30 12.5 89 9.79 10.7 33 43 1016.3 0.2 22.2 28.4 45.6 119.8 116.7 402.3
14 19:20 12.6 90 9.96 11 33 41 1016.1 0.2 22.6 28.7 46.2 121.6 118.9 410.1
14 19:10 12.9 89 10.03 11.1 35 39 1015.8 0.2 22.7 28.7 46.3 121.9 119.4 411.9
14 19:00 13.1 90 10.27 11.5 37 43 1015.5 0.2 23.2 29.0 47.2 124.3 122.5 422.6
14 18:50 13 90 10.21 11.4 37 41 1015.4 0.2 23.1 28.9 47.0 123.7 121.8 420.1
14 18:40 13.2 90 10.33 11.6 33 37 1015.3 0.2 23.3 29.1 47.4 124.8 123.1 424.9
14 18:30 13.5 90 10.53 11.9 32 37 1015.1 0.2 23.7 29.3 48.1 126.6 125.5 433.1
14 18:20 13.6 90 10.59 12 33 35 1014.9 0.2 23.9 29.4 48.3 127.1 126.1 435.5
14 18:10 13.6 89 10.47 11.8 30 33 1014.8 0.2 23.6 29.2 47.8 125.7 124.4 429.5
14 18:00 13.7 90 10.66 12.1 28 35 1014.4 0.2 24.0 29.4 48.5 127.7 126.9 438.2
14 17:50 13.8 91 10.84 12.3 26 35 1014.2 0.2 24.4 29.7 49.2 129.6 129.3 446.5
14 17:40 13.7 91 10.78 12.2 30 33 1014 0.2 24.3 29.6 49.0 129.0 128.6 444.0
14 17:30 13.8 92 10.96 12.5 30 37 1013.8 0.2 24.7 29.9 49.7 130.9 131.0 452.4
14 17:20 14 92 11.1 12.8 33 37 1013.6 0.2 24.9 30.1 50.2 132.2 132.6 458.2
14 17:10 14.2 92 11.23 12.9 37 43 1013.2 0.2 25.2 30.2 50.6 133.3 134.1 463.4
14 17:00 14.9 92 11.73 13.6 26 35 1012.9 0.2 26.2 30.8 52.3 137.9 140.0 484.1
14 16:50 15.1 91 11.74 13.6 22 30 1012.7 0.2 26.3 30.8 52.2 137.7 139.8 483.3
14 16:40 14.8 89 11.27 13.1 15 19 1012.6 0.2 25.3 30.1 50.4 132.7 133.6 461.5
14 16:30 14.8 90 11.4 13.2 11 17 1012.3 0.2 25.5 30.3 50.9 134.2 135.4 467.9
14 16:20 14.5 89 11.07 12.8 11 13 1012.1 0.2 24.9 29.8 49.7 130.8 131.2 453.2
14 16:10 14.5 91 11.32 13 9 11 1012 0.2 25.4 30.2 50.8 133.7 134.7 465.6
14 16:00 14.6 90 11.26 13 15 19 1011.7 0.2 25.3 30.1 50.4 132.8 133.7 461.9
14 15:50 15.2 89 11.55 13.5 11 13 1011.6 0.2 25.8 30.4 51.3 135.1 136.7 472.7
14 15:40 15.2 89 11.55 13.5 7 7 1011.5 0.2 25.8 30.4 51.3 135.1 136.7 472.7
14 15:30 15.1 89 11.48 13.3 4 4 1011.5 0.2 25.7 30.3 51.0 134.5 135.9 469.8
14 15:20 15.2 89 11.55 13.4 6 7 1011.4 0.2 25.8 30.4 51.3 135.1 136.7 472.7
14 15:10 15.3 89 11.62 13.5 11 13 1011.3 0.2 26.0 30.4 51.5 135.7 137.5 475.5
14 15:00 15.5 83 10.97 12.6 17 22 1011.3 0 24.6 29.2 48.6 127.9 128.0 442.2
14 14:50 16.1 75 10.28 11.8 15 17 1011.1 0 23.1 27.9 45.3 119.2 117.5 405.6
14 14:40 16.4 77 10.75 12.3 13 17 1011.2 0 24.1 28.6 47.1 123.9 123.4 426.4
14 14:30 16.6 76 10.74 12.4 17 20 1011.2 0 24.0 28.5 46.9 123.5 123.0 424.9
14 14:20 16.5 74 10.39 11.8 19 22 1011.1 0 23.3 27.9 45.5 119.8 118.4 408.7
14 14:10 17.4 78 11.56 13.5 20 24 1011 0 25.7 29.6 49.9 131.4 132.9 459.7
14 14:00 17 77 11.14 12.9 22 32 1011.2 0 24.9 29.0 48.4 127.3 127.8 441.8
14 13:50 17.7 75 11.31 13.2 24 30 1011.3 0 25.2 29.1 48.6 128.1 129.0 446.0
14 13:40 17.4 75 11.11 12.9 28 32 1011.2 0 24.8 28.8 48.0 126.3 126.7 438.1
14 13:30 17.5 72 10.73 12.4 24 30 1011.4 0 23.9 28.2 46.4 122.0 121.4 419.6
14 13:20 18.3 73 11.41 13.5 19 22 1011.4 0 25.3 29.1 48.7 128.2 129.4 447.4
14 13:10 17.7 79 11.92 14 24 28 1011.5 0 26.5 30.1 51.2 135.0 137.5 475.6
14 13:00 17.4 76 11.26 13.1 19 26 1011.7 0 25.1 29.1 48.6 128.1 128.9 445.5
14 12:50 18.3 78 12.19 14.4 11 17 1011.8 0 27.0 30.4 52.0 137.1 140.2 485.2
14 12:40 17.6 80 12 14.1 20 24 1012 0 26.6 30.3 51.7 136.1 138.8 480.3
14 12:30 17.1 77 11.21 13 20 28 1012.1 0 25.0 29.1 48.6 128.1 128.7 444.9
14 12:20 17.2 77 11.28 13.1 26 30 1012.1 0 25.1 29.2 48.9 128.7 129.5 447.7
14 12:10 17.1 80 11.64 13.6 19 22 1012.2 0 25.9 29.9 50.5 132.9 134.7 465.8
14 12:00 17 80 11.58 13.5 13 15 1012.4 0 25.8 29.8 50.3 132.4 134.1 463.6
14 11:50 17.6 79 11.85 13.9 19 22 1012.5 0 26.3 30.1 51.0 134.5 136.8 473.2
14 11:40 18.2 80 12.43 14.7 17 22 1012.5 0 27.5 30.9 53.1 140.1 143.8 497.9
14 11:30 18 80 12.29 14.5 17 22 1012.6 0 27.2 30.7 52.7 138.8 142.2 492.3
14 11:20 17.7 80 12.07 14.2 15 17 1012.6 0 26.8 30.4 51.9 136.8 139.7 483.4
14 11:10 17.4 80 11.86 13.9 17 22 1012.7 0 26.4 30.2 51.2 135.0 137.3 475.0
14 11:00 17.3 82 12.08 14.3 17 20 1012.7 0 26.8 30.6 52.2 137.7 140.6 486.4
14 10:50 16.8 85 12.15 14.2 20 24 1012.8 0 27.0 30.9 52.9 139.4 142.5 493.1
14 10:40 17.1 87 12.66 14.9 17 20 1012.9 0 28.1 31.7 54.9 144.8 149.3 516.8
14 10:30 16.7 90 12.79 15 19 22 1012.8 0 28.4 32.1 55.8 147.1 152.0 526.1
14 10:20 16.5 94 13.2 15.5 19 22 1012.8 0 29.3 32.9 57.8 152.4 158.4 548.5
14 10:10 16.8 95 13.58 16 13 19 1012.7 0 30.1 33.5 59.3 156.4 163.4 566.0
14 10:00 16.3 96 13.32 15.6 13 17 1012.7 0 29.6 33.2 58.5 154.3 160.6 556.2
14 09:50 16 96 13.08 15.3 11 15 1012.6 0 29.1 32.8 57.6 151.9 157.7 545.8
14 09:40 16.1 97 13.3 15.6 11 13 1012.5 0 29.5 33.2 58.5 154.4 160.7 556.5
14 09:30 15.6 97 12.9 15.1 11 15 1012.5 0 28.7 32.7 57.1 150.5 155.8 539.3
14 09:20 15.3 97 12.67 14.8 9 13 1012.4 0 28.2 32.4 56.2 148.3 153.0 529.4
14 09:10 15.2 97 12.59 14.7 13 15 1012.4 0 28.1 32.3 56.0 147.5 152.0 526.0
14 09:00 14.9 97 12.36 14.4 13 15 1012.4 0 27.6 31.9 55.1 145.4 149.2 516.1
14 08:50 14.8 97 12.29 14.3 11 13 1012.4 16.8 27.5 31.9 54.9 144.7 148.4 513.2

Last Refresh: 15-Jun-2024 01:38:44

Bureau of Meteorology